sensor_id;sensor_type;location;lat;lon;timestamp;P1;durP1;ratioP1;P2;durP2;ratioP2
11618;SDS011;5865;48.776;9.280;2022-09-17T00:00:53;1.03;;;0.90;;
11618;SDS011;5865;48.776;9.280;2022-09-17T00:03:21;0.70;;;0.70;;
11618;SDS011;5865;48.776;9.280;2022-09-17T00:05:57;0.97;;;0.80;;
11618;SDS011;5865;48.776;9.280;2022-09-17T00:08:25;1.73;;;0.90;;
11618;SDS011;5865;48.776;9.280;2022-09-17T00:10:52;1.10;;;0.90;;
11618;SDS011;5865;48.776;9.280;2022-09-17T00:13:19;2.83;;;0.90;;
11618;SDS011;5865;48.776;9.280;2022-09-17T00:15:45;1.60;;;0.80;;
11618;SDS011;5865;48.776;9.280;2022-09-17T00:18:13;1.97;;;0.80;;
11618;SDS011;5865;48.776;9.280;2022-09-17T00:20:43;1.93;;;1.07;;
11618;SDS011;5865;48.776;9.280;2022-09-17T00:23:13;1.00;;;0.80;;
11618;SDS011;5865;48.776;9.280;2022-09-17T00:25:40;1.03;;;0.80;;
11618;SDS011;5865;48.776;9.280;2022-09-17T00:28:09;2.00;;;0.80;;
11618;SDS011;5865;48.776;9.280;2022-09-17T00:30:38;3.20;;;0.90;;
11618;SDS011;5865;48.776;9.280;2022-09-17T00:33:05;1.33;;;0.80;;
11618;SDS011;5865;48.776;9.280;2022-09-17T00:35:33;1.97;;;0.90;;
11618;SDS011;5865;48.776;9.280;2022-09-17T00:38:00;1.73;;;1.03;;
11618;SDS011;5865;48.776;9.280;2022-09-17T00:40:28;2.00;;;0.93;;
11618;SDS011;5865;48.776;9.280;2022-09-17T00:42:56;0.93;;;0.77;;
11618;SDS011;5865;48.776;9.280;2022-09-17T00:45:23;0.93;;;0.80;;
11618;SDS011;5865;48.776;9.280;2022-09-17T00:47:56;2.50;;;0.90;;
11618;SDS011;5865;48.776;9.280;2022-09-17T00:50:26;3.27;;;1.10;;
11618;SDS011;5865;48.776;9.280;2022-09-17T00:52:54;1.23;;;0.90;;
11618;SDS011;5865;48.776;9.280;2022-09-17T00:55:25;1.90;;;0.90;;
11618;SDS011;5865;48.776;9.280;2022-09-17T00:57:57;1.57;;;1.10;;
11618;SDS011;5865;48.776;9.280;2022-09-17T01:00:26;0.90;;;0.80;;
11618;SDS011;5865;48.776;9.280;2022-09-17T01:02:55;0.70;;;0.70;;
11618;SDS011;5865;48.776;9.280;2022-09-17T01:05:25;1.20;;;0.90;;
11618;SDS011;5865;48.776;9.280;2022-09-17T01:08:00;1.67;;;0.90;;
11618;SDS011;5865;48.776;9.280;2022-09-17T01:10:49;1.93;;;0.90;;
11618;SDS011;5865;48.776;9.280;2022-09-17T01:13:34;1.27;;;0.90;;
11618;SDS011;5865;48.776;9.280;2022-09-17T01:16:10;3.27;;;1.00;;
11618;SDS011;5865;48.776;9.280;2022-09-17T01:18:46;0.80;;;0.80;;
11618;SDS011;5865;48.776;9.280;2022-09-17T01:21:31;2.10;;;1.03;;
11618;SDS011;5865;48.776;9.280;2022-09-17T01:24:35;3.40;;;1.03;;
11618;SDS011;5865;48.776;9.280;2022-09-17T01:27:42;1.50;;;1.10;;
11618;SDS011;5865;48.776;9.280;2022-09-17T01:30:44;1.70;;;1.20;;
11618;SDS011;5865;48.776;9.280;2022-09-17T01:33:29;1.60;;;0.90;;
11618;SDS011;5865;48.776;9.280;2022-09-17T01:36:07;1.17;;;0.87;;
11618;SDS011;5865;48.776;9.280;2022-09-17T01:38:48;1.50;;;1.20;;
11618;SDS011;5865;48.776;9.280;2022-09-17T01:41:21;3.00;;;1.10;;
11618;SDS011;5865;48.776;9.280;2022-09-17T01:43:57;1.43;;;1.10;;
11618;SDS011;5865;48.776;9.280;2022-09-17T01:46:30;1.57;;;1.07;;
11618;SDS011;5865;48.776;9.280;2022-09-17T01:48:59;1.80;;;1.17;;
11618;SDS011;5865;48.776;9.280;2022-09-17T01:51:28;2.83;;;1.20;;
11618;SDS011;5865;48.776;9.280;2022-09-17T01:54:01;1.60;;;1.10;;
11618;SDS011;5865;48.776;9.280;2022-09-17T01:56:32;1.67;;;1.00;;
11618;SDS011;5865;48.776;9.280;2022-09-17T01:59:03;1.93;;;1.20;;
11618;SDS011;5865;48.776;9.280;2022-09-17T02:01:36;1.57;;;1.10;;
11618;SDS011;5865;48.776;9.280;2022-09-17T02:04:05;1.27;;;1.10;;
11618;SDS011;5865;48.776;9.280;2022-09-17T02:06:37;2.07;;;1.10;;
11618;SDS011;5865;48.776;9.280;2022-09-17T02:09:10;4.33;;;1.23;;
11618;SDS011;5865;48.776;9.280;2022-09-17T02:11:39;2.00;;;1.27;;
11618;SDS011;5865;48.776;9.280;2022-09-17T02:14:12;2.60;;;1.07;;
11618;SDS011;5865;48.776;9.280;2022-09-17T02:16:43;1.60;;;1.10;;
11618;SDS011;5865;48.776;9.280;2022-09-17T02:19:14;2.77;;;1.00;;
11618;SDS011;5865;48.776;9.280;2022-09-17T02:21:47;2.27;;;1.40;;
11618;SDS011;5865;48.776;9.280;2022-09-17T02:24:22;2.20;;;1.20;;
11618;SDS011;5865;48.776;9.280;2022-09-17T02:26:53;2.97;;;1.40;;
11618;SDS011;5865;48.776;9.280;2022-09-17T02:29:26;2.53;;;1.27;;
11618;SDS011;5865;48.776;9.280;2022-09-17T02:31:58;2.63;;;1.43;;
11618;SDS011;5865;48.776;9.280;2022-09-17T02:34:26;1.40;;;1.10;;
11618;SDS011;5865;48.776;9.280;2022-09-17T02:36:54;2.63;;;1.30;;
11618;SDS011;5865;48.776;9.280;2022-09-17T02:39:22;3.03;;;1.27;;
11618;SDS011;5865;48.776;9.280;2022-09-17T02:41:51;2.00;;;1.30;;
11618;SDS011;5865;48.776;9.280;2022-09-17T02:44:31;4.50;;;1.20;;
11618;SDS011;5865;48.776;9.280;2022-09-17T02:47:11;1.97;;;1.53;;
11618;SDS011;5865;48.776;9.280;2022-09-17T02:50:06;2.57;;;1.30;;
11618;SDS011;5865;48.776;9.280;2022-09-17T02:52:46;3.30;;;1.20;;
11618;SDS011;5865;48.776;9.280;2022-09-17T02:55:22;2.07;;;1.03;;
11618;SDS011;5865;48.776;9.280;2022-09-17T02:57:59;2.30;;;1.20;;
11618;SDS011;5865;48.776;9.280;2022-09-17T03:00:34;2.47;;;0.93;;
11618;SDS011;5865;48.776;9.280;2022-09-17T03:03:05;1.73;;;1.23;;
11618;SDS011;5865;48.776;9.280;2022-09-17T03:05:36;3.50;;;1.13;;
11618;SDS011;5865;48.776;9.280;2022-09-17T03:08:06;3.10;;;1.20;;
11618;SDS011;5865;48.776;9.280;2022-09-17T03:10:34;2.60;;;1.23;;
11618;SDS011;5865;48.776;9.280;2022-09-17T03:13:01;4.23;;;1.27;;
11618;SDS011;5865;48.776;9.280;2022-09-17T03:15:28;3.30;;;1.20;;
11618;SDS011;5865;48.776;9.280;2022-09-17T03:17:56;3.90;;;1.30;;
11618;SDS011;5865;48.776;9.280;2022-09-17T03:20:24;3.13;;;1.10;;
11618;SDS011;5865;48.776;9.280;2022-09-17T03:22:51;2.10;;;1.10;;
11618;SDS011;5865;48.776;9.280;2022-09-17T03:25:18;3.13;;;1.10;;
11618;SDS011;5865;48.776;9.280;2022-09-17T03:27:45;2.67;;;1.20;;
11618;SDS011;5865;48.776;9.280;2022-09-17T03:30:13;4.70;;;1.30;;
11618;SDS011;5865;48.776;9.280;2022-09-17T03:32:40;5.67;;;1.37;;
11618;SDS011;5865;48.776;9.280;2022-09-17T03:35:07;4.00;;;1.20;;
11618;SDS011;5865;48.776;9.280;2022-09-17T03:37:36;3.93;;;1.20;;
11618;SDS011;5865;48.776;9.280;2022-09-17T03:40:03;2.67;;;1.10;;
11618;SDS011;5865;48.776;9.280;2022-09-17T03:42:30;1.73;;;1.00;;
11618;SDS011;5865;48.776;9.280;2022-09-17T03:44:57;2.20;;;1.10;;
11618;SDS011;5865;48.776;9.280;2022-09-17T03:47:25;4.43;;;1.13;;
11618;SDS011;5865;48.776;9.280;2022-09-17T03:49:52;4.77;;;1.80;;
11618;SDS011;5865;48.776;9.280;2022-09-17T03:52:19;2.93;;;1.20;;
11618;SDS011;5865;48.776;9.280;2022-09-17T03:54:48;2.60;;;1.23;;
11618;SDS011;5865;48.776;9.280;2022-09-17T03:57:14;4.27;;;1.30;;
11618;SDS011;5865;48.776;9.280;2022-09-17T03:59:42;2.33;;;1.30;;
11618;SDS011;5865;48.776;9.280;2022-09-17T04:02:11;2.27;;;1.30;;
11618;SDS011;5865;48.776;9.280;2022-09-17T04:04:38;2.00;;;1.10;;
11618;SDS011;5865;48.776;9.280;2022-09-17T04:07:05;4.13;;;1.40;;
11618;SDS011;5865;48.776;9.280;2022-09-17T04:09:33;6.03;;;1.40;;
11618;SDS011;5865;48.776;9.280;2022-09-17T04:12:01;5.53;;;1.40;;
11618;SDS011;5865;48.776;9.280;2022-09-17T04:14:28;7.50;;;1.60;;
11618;SDS011;5865;48.776;9.280;2022-09-17T04:16:56;4.57;;;1.50;;
11618;SDS011;5865;48.776;9.280;2022-09-17T04:19:23;2.23;;;1.27;;
11618;SDS011;5865;48.776;9.280;2022-09-17T04:21:50;2.97;;;1.20;;
11618;SDS011;5865;48.776;9.280;2022-09-17T04:24:18;3.80;;;1.33;;
11618;SDS011;5865;48.776;9.280;2022-09-17T04:26:45;5.80;;;1.30;;
11618;SDS011;5865;48.776;9.280;2022-09-17T04:29:13;3.47;;;1.50;;
11618;SDS011;5865;48.776;9.280;2022-09-17T04:31:40;4.53;;;1.10;;
11618;SDS011;5865;48.776;9.280;2022-09-17T04:34:07;4.10;;;1.27;;
11618;SDS011;5865;48.776;9.280;2022-09-17T04:36:34;4.77;;;1.77;;
11618;SDS011;5865;48.776;9.280;2022-09-17T04:39:01;3.83;;;1.00;;
11618;SDS011;5865;48.776;9.280;2022-09-17T04:41:28;2.50;;;1.10;;
11618;SDS011;5865;48.776;9.280;2022-09-17T04:43:55;3.03;;;1.03;;
11618;SDS011;5865;48.776;9.280;2022-09-17T04:46:24;3.30;;;1.20;;
11618;SDS011;5865;48.776;9.280;2022-09-17T04:48:50;5.97;;;1.20;;
11618;SDS011;5865;48.776;9.280;2022-09-17T04:51:17;3.23;;;1.10;;
11618;SDS011;5865;48.776;9.280;2022-09-17T04:53:44;4.80;;;1.30;;
11618;SDS011;5865;48.776;9.280;2022-09-17T04:56:11;3.27;;;1.20;;
11618;SDS011;5865;48.776;9.280;2022-09-17T04:58:39;1.93;;;1.30;;
11618;SDS011;5865;48.776;9.280;2022-09-17T05:01:06;4.83;;;1.20;;
11618;SDS011;5865;48.776;9.280;2022-09-17T05:03:35;4.53;;;1.53;;
11618;SDS011;5865;48.776;9.280;2022-09-17T05:06:02;5.17;;;1.27;;
11618;SDS011;5865;48.776;9.280;2022-09-17T05:08:29;8.03;;;1.20;;
11618;SDS011;5865;48.776;9.280;2022-09-17T05:10:57;3.30;;;1.30;;
11618;SDS011;5865;48.776;9.280;2022-09-17T05:13:23;2.80;;;1.23;;
11618;SDS011;5865;48.776;9.280;2022-09-17T05:15:50;3.17;;;1.10;;
11618;SDS011;5865;48.776;9.280;2022-09-17T05:18:20;3.10;;;1.20;;
11618;SDS011;5865;48.776;9.280;2022-09-17T05:20:49;3.40;;;1.50;;
11618;SDS011;5865;48.776;9.280;2022-09-17T05:23:16;4.07;;;1.37;;
11618;SDS011;5865;48.776;9.280;2022-09-17T05:25:44;5.53;;;1.50;;
11618;SDS011;5865;48.776;9.280;2022-09-17T05:28:11;4.33;;;1.43;;
11618;SDS011;5865;48.776;9.280;2022-09-17T05:30:38;4.47;;;1.30;;
11618;SDS011;5865;48.776;9.280;2022-09-17T05:33:05;3.30;;;1.20;;
11618;SDS011;5865;48.776;9.280;2022-09-17T05:35:32;6.20;;;1.60;;
11618;SDS011;5865;48.776;9.280;2022-09-17T05:38:02;1.97;;;1.33;;
11618;SDS011;5865;48.776;9.280;2022-09-17T05:40:31;2.93;;;1.30;;
11618;SDS011;5865;48.776;9.280;2022-09-17T05:42:58;3.80;;;1.50;;
11618;SDS011;5865;48.776;9.280;2022-09-17T05:45:26;3.37;;;1.40;;
11618;SDS011;5865;48.776;9.280;2022-09-17T05:47:54;5.20;;;1.43;;
11618;SDS011;5865;48.776;9.280;2022-09-17T05:50:21;7.80;;;1.50;;
11618;SDS011;5865;48.776;9.280;2022-09-17T05:52:48;4.47;;;1.30;;
11618;SDS011;5865;48.776;9.280;2022-09-17T05:55:17;4.40;;;1.40;;
11618;SDS011;5865;48.776;9.280;2022-09-17T05:57:44;2.50;;;1.30;;
11618;SDS011;5865;48.776;9.280;2022-09-17T06:00:11;4.50;;;1.47;;
11618;SDS011;5865;48.776;9.280;2022-09-17T06:02:40;2.77;;;1.30;;
11618;SDS011;5865;48.776;9.280;2022-09-17T06:05:08;4.27;;;1.50;;
11618;SDS011;5865;48.776;9.280;2022-09-17T06:07:35;5.27;;;1.30;;
11618;SDS011;5865;48.776;9.280;2022-09-17T06:10:02;5.73;;;1.90;;
11618;SDS011;5865;48.776;9.280;2022-09-17T06:12:31;3.97;;;1.40;;
11618;SDS011;5865;48.776;9.280;2022-09-17T06:14:59;3.30;;;1.33;;
11618;SDS011;5865;48.776;9.280;2022-09-17T06:17:26;4.57;;;1.43;;
11618;SDS011;5865;48.776;9.280;2022-09-17T06:19:53;5.63;;;1.60;;
11618;SDS011;5865;48.776;9.280;2022-09-17T06:22:20;6.50;;;1.63;;
11618;SDS011;5865;48.776;9.280;2022-09-17T06:24:47;6.60;;;1.70;;
11618;SDS011;5865;48.776;9.280;2022-09-17T06:27:14;6.23;;;1.90;;
11618;SDS011;5865;48.776;9.280;2022-09-17T06:29:43;2.57;;;1.40;;
11618;SDS011;5865;48.776;9.280;2022-09-17T06:32:10;3.70;;;1.63;;
11618;SDS011;5865;48.776;9.280;2022-09-17T06:34:39;4.67;;;1.60;;
11618;SDS011;5865;48.776;9.280;2022-09-17T06:37:06;3.30;;;1.60;;
11618;SDS011;5865;48.776;9.280;2022-09-17T06:39:33;3.93;;;1.83;;
11618;SDS011;5865;48.776;9.280;2022-09-17T06:42:00;3.53;;;1.50;;
11618;SDS011;5865;48.776;9.280;2022-09-17T06:44:28;6.97;;;1.67;;
11618;SDS011;5865;48.776;9.280;2022-09-17T06:46:57;4.40;;;2.07;;
11618;SDS011;5865;48.776;9.280;2022-09-17T06:49:24;8.43;;;2.33;;
11618;SDS011;5865;48.776;9.280;2022-09-17T06:51:51;4.27;;;1.60;;
11618;SDS011;5865;48.776;9.280;2022-09-17T06:54:18;4.40;;;1.63;;
11618;SDS011;5865;48.776;9.280;2022-09-17T06:56:45;5.60;;;2.20;;
11618;SDS011;5865;48.776;9.280;2022-09-17T06:59:12;4.50;;;1.80;;
11618;SDS011;5865;48.776;9.280;2022-09-17T07:01:41;4.90;;;2.00;;
11618;SDS011;5865;48.776;9.280;2022-09-17T07:04:10;3.33;;;1.77;;
11618;SDS011;5865;48.776;9.280;2022-09-17T07:06:37;4.50;;;1.53;;
11618;SDS011;5865;48.776;9.280;2022-09-17T07:09:04;7.37;;;1.60;;
11618;SDS011;5865;48.776;9.280;2022-09-17T07:11:31;2.50;;;1.60;;
11618;SDS011;5865;48.776;9.280;2022-09-17T07:14:02;5.17;;;1.57;;
11618;SDS011;5865;48.776;9.280;2022-09-17T07:16:31;5.23;;;2.17;;
11618;SDS011;5865;48.776;9.280;2022-09-17T07:18:59;5.77;;;1.77;;
11618;SDS011;5865;48.776;9.280;2022-09-17T07:21:28;4.47;;;1.80;;
11618;SDS011;5865;48.776;9.280;2022-09-17T07:23:55;6.63;;;1.73;;
11618;SDS011;5865;48.776;9.280;2022-09-17T07:26:22;5.70;;;1.50;;
11618;SDS011;5865;48.776;9.280;2022-09-17T07:28:49;3.70;;;1.33;;
11618;SDS011;5865;48.776;9.280;2022-09-17T07:31:16;3.63;;;1.30;;
11618;SDS011;5865;48.776;9.280;2022-09-17T07:33:43;4.17;;;1.93;;
11618;SDS011;5865;48.776;9.280;2022-09-17T07:36:11;2.90;;;1.63;;
11618;SDS011;5865;48.776;9.280;2022-09-17T07:38:43;4.30;;;1.70;;
11618;SDS011;5865;48.776;9.280;2022-09-17T07:41:11;4.17;;;1.60;;
11618;SDS011;5865;48.776;9.280;2022-09-17T07:43:40;3.97;;;1.47;;
11618;SDS011;5865;48.776;9.280;2022-09-17T07:46:09;3.23;;;1.67;;
11618;SDS011;5865;48.776;9.280;2022-09-17T07:48:39;3.57;;;1.47;;
11618;SDS011;5865;48.776;9.280;2022-09-17T07:51:08;5.43;;;1.87;;
11618;SDS011;5865;48.776;9.280;2022-09-17T07:53:40;3.13;;;1.80;;
11618;SDS011;5865;48.776;9.280;2022-09-17T07:56:09;3.93;;;1.57;;
11618;SDS011;5865;48.776;9.280;2022-09-17T07:58:35;1.97;;;1.40;;
11618;SDS011;5865;48.776;9.280;2022-09-17T08:01:03;3.03;;;1.50;;
11618;SDS011;5865;48.776;9.280;2022-09-17T08:03:32;2.57;;;1.53;;
11618;SDS011;5865;48.776;9.280;2022-09-17T08:06:00;5.33;;;1.70;;
11618;SDS011;5865;48.776;9.280;2022-09-17T08:08:30;5.43;;;1.70;;
11618;SDS011;5865;48.776;9.280;2022-09-17T08:11:03;3.90;;;1.43;;
11618;SDS011;5865;48.776;9.280;2022-09-17T08:13:31;1.90;;;1.33;;
11618;SDS011;5865;48.776;9.280;2022-09-17T08:15:58;4.37;;;1.80;;
11618;SDS011;5865;48.776;9.280;2022-09-17T08:18:26;2.40;;;1.50;;
11618;SDS011;5865;48.776;9.280;2022-09-17T08:20:55;2.67;;;1.30;;
11618;SDS011;5865;48.776;9.280;2022-09-17T08:23:23;4.27;;;1.60;;
11618;SDS011;5865;48.776;9.280;2022-09-17T08:25:51;3.67;;;1.63;;
11618;SDS011;5865;48.776;9.280;2022-09-17T08:28:20;4.03;;;1.60;;
11618;SDS011;5865;48.776;9.280;2022-09-17T08:30:48;3.63;;;1.83;;
11618;SDS011;5865;48.776;9.280;2022-09-17T08:33:15;2.67;;;1.80;;
11618;SDS011;5865;48.776;9.280;2022-09-17T08:35:42;4.17;;;1.70;;
11618;SDS011;5865;48.776;9.280;2022-09-17T08:38:09;2.87;;;1.57;;
11618;SDS011;5865;48.776;9.280;2022-09-17T08:40:38;4.07;;;2.07;;
11618;SDS011;5865;48.776;9.280;2022-09-17T08:43:14;4.70;;;2.03;;
11618;SDS011;5865;48.776;9.280;2022-09-17T08:45:45;5.13;;;1.97;;
11618;SDS011;5865;48.776;9.280;2022-09-17T08:48:18;4.20;;;1.63;;
11618;SDS011;5865;48.776;9.280;2022-09-17T08:50:45;3.10;;;1.60;;
11618;SDS011;5865;48.776;9.280;2022-09-17T08:53:15;6.67;;;1.73;;
11618;SDS011;5865;48.776;9.280;2022-09-17T08:55:53;3.30;;;1.80;;
11618;SDS011;5865;48.776;9.280;2022-09-17T08:58:36;3.17;;;1.50;;
11618;SDS011;5865;48.776;9.280;2022-09-17T09:01:10;4.30;;;1.47;;
11618;SDS011;5865;48.776;9.280;2022-09-17T09:03:50;3.77;;;1.70;;
11618;SDS011;5865;48.776;9.280;2022-09-17T09:06:40;7.53;;;1.60;;
11618;SDS011;5865;48.776;9.280;2022-09-17T09:09:10;4.10;;;1.80;;
11618;SDS011;5865;48.776;9.280;2022-09-17T09:11:40;4.93;;;1.77;;
11618;SDS011;5865;48.776;9.280;2022-09-17T09:14:10;6.37;;;2.00;;
11618;SDS011;5865;48.776;9.280;2022-09-17T09:16:45;7.00;;;1.73;;
11618;SDS011;5865;48.776;9.280;2022-09-17T09:19:16;9.13;;;1.80;;
11618;SDS011;5865;48.776;9.280;2022-09-17T09:21:50;5.03;;;1.97;;
11618;SDS011;5865;48.776;9.280;2022-09-17T09:24:29;8.10;;;2.10;;
11618;SDS011;5865;48.776;9.280;2022-09-17T09:27:08;7.47;;;1.90;;
11618;SDS011;5865;48.776;9.280;2022-09-17T09:29:44;6.20;;;2.20;;
11618;SDS011;5865;48.776;9.280;2022-09-17T09:32:26;4.83;;;1.80;;
11618;SDS011;5865;48.776;9.280;2022-09-17T09:35:13;6.50;;;1.90;;
11618;SDS011;5865;48.776;9.280;2022-09-17T09:37:47;6.03;;;1.73;;
11618;SDS011;5865;48.776;9.280;2022-09-17T09:40:25;5.53;;;1.70;;
11618;SDS011;5865;48.776;9.280;2022-09-17T09:42:59;4.47;;;1.60;;
11618;SDS011;5865;48.776;9.280;2022-09-17T09:45:33;4.93;;;1.70;;
11618;SDS011;5865;48.776;9.280;2022-09-17T09:48:12;6.47;;;2.10;;
11618;SDS011;5865;48.776;9.280;2022-09-17T09:50:49;9.20;;;2.13;;
11618;SDS011;5865;48.776;9.280;2022-09-17T09:53:30;6.23;;;2.13;;
11618;SDS011;5865;48.776;9.280;2022-09-17T09:56:09;4.90;;;1.77;;
11618;SDS011;5865;48.776;9.280;2022-09-17T09:58:52;6.07;;;1.93;;
11618;SDS011;5865;48.776;9.280;2022-09-17T10:01:20;5.90;;;1.60;;
11618;SDS011;5865;48.776;9.280;2022-09-17T10:03:53;4.87;;;1.57;;
11618;SDS011;5865;48.776;9.280;2022-09-17T10:06:23;6.20;;;1.80;;
11618;SDS011;5865;48.776;9.280;2022-09-17T10:09:10;5.10;;;1.90;;
11618;SDS011;5865;48.776;9.280;2022-09-17T10:11:38;7.80;;;1.77;;
11618;SDS011;5865;48.776;9.280;2022-09-17T10:14:13;11.77;;;2.00;;
11618;SDS011;5865;48.776;9.280;2022-09-17T10:16:48;6.03;;;1.70;;
11618;SDS011;5865;48.776;9.280;2022-09-17T10:19:19;5.20;;;1.60;;
11618;SDS011;5865;48.776;9.280;2022-09-17T10:21:49;6.97;;;2.00;;
11618;SDS011;5865;48.776;9.280;2022-09-17T10:24:20;6.10;;;1.70;;
11618;SDS011;5865;48.776;9.280;2022-09-17T10:26:51;5.40;;;1.67;;
11618;SDS011;5865;48.776;9.280;2022-09-17T10:29:19;4.27;;;2.00;;
11618;SDS011;5865;48.776;9.280;2022-09-17T10:31:46;3.87;;;1.73;;
11618;SDS011;5865;48.776;9.280;2022-09-17T10:34:19;4.00;;;1.50;;
11618;SDS011;5865;48.776;9.280;2022-09-17T10:36:48;3.80;;;1.60;;
11618;SDS011;5865;48.776;9.280;2022-09-17T10:42:11;4.43;;;1.50;;
11618;SDS011;5865;48.776;9.280;2022-09-17T10:44:49;3.90;;;1.43;;
11618;SDS011;5865;48.776;9.280;2022-09-17T10:47:18;4.23;;;1.30;;
11618;SDS011;5865;48.776;9.280;2022-09-17T10:49:52;4.00;;;1.40;;
11618;SDS011;5865;48.776;9.280;2022-09-17T10:52:22;3.70;;;1.50;;
11618;SDS011;5865;48.776;9.280;2022-09-17T10:55:03;3.50;;;1.20;;
11618;SDS011;5865;48.776;9.280;2022-09-17T10:57:52;3.53;;;1.67;;
11618;SDS011;5865;48.776;9.280;2022-09-17T11:00:41;3.83;;;1.40;;
11618;SDS011;5865;48.776;9.280;2022-09-17T11:03:17;2.80;;;1.40;;
11618;SDS011;5865;48.776;9.280;2022-09-17T11:06:01;4.37;;;1.77;;
11618;SDS011;5865;48.776;9.280;2022-09-17T11:08:41;2.95;;;1.30;;
11618;SDS011;5865;48.776;9.280;2022-09-17T11:11:16;2.80;;;1.30;;
11618;SDS011;5865;48.776;9.280;2022-09-17T11:13:47;2.23;;;1.27;;
11618;SDS011;5865;48.776;9.280;2022-09-17T11:16:30;5.40;;;1.63;;
11618;SDS011;5865;48.776;9.280;2022-09-17T11:19:06;5.07;;;1.30;;
11618;SDS011;5865;48.776;9.280;2022-09-17T11:21:42;3.97;;;1.20;;
11618;SDS011;5865;48.776;9.280;2022-09-17T11:24:18;2.97;;;1.10;;
11618;SDS011;5865;48.776;9.280;2022-09-17T11:27:04;2.95;;;1.33;;
11618;SDS011;5865;48.776;9.280;2022-09-17T11:29:43;4.20;;;1.13;;
11618;SDS011;5865;48.776;9.280;2022-09-17T11:32:31;2.95;;;1.27;;
11618;SDS011;5865;48.776;9.280;2022-09-17T11:35:11;5.20;;;1.50;;
11618;SDS011;5865;48.776;9.280;2022-09-17T11:37:45;4.60;;;1.30;;
11618;SDS011;5865;48.776;9.280;2022-09-17T11:40:16;3.35;;;1.48;;
11618;SDS011;5865;48.776;9.280;2022-09-17T11:42:48;3.78;;;1.20;;
11618;SDS011;5865;48.776;9.280;2022-09-17T11:45:21;4.57;;;1.20;;
11618;SDS011;5865;48.776;9.280;2022-09-17T11:47:53;3.83;;;1.20;;
11618;SDS011;5865;48.776;9.280;2022-09-17T11:50:26;4.55;;;1.08;;
11618;SDS011;5865;48.776;9.280;2022-09-17T11:52:59;3.03;;;1.10;;
11618;SDS011;5865;48.776;9.280;2022-09-17T11:55:34;1.77;;;1.13;;
11618;SDS011;5865;48.776;9.280;2022-09-17T11:58:08;3.25;;;1.50;;
11618;SDS011;5865;48.776;9.280;2022-09-17T12:00:41;2.75;;;1.10;;
11618;SDS011;5865;48.776;9.280;2022-09-17T12:03:15;4.00;;;1.20;;
11618;SDS011;5865;48.776;9.280;2022-09-17T12:05:48;2.53;;;0.98;;
11618;SDS011;5865;48.776;9.280;2022-09-17T12:08:20;2.72;;;1.02;;
11618;SDS011;5865;48.776;9.280;2022-09-17T12:10:51;2.60;;;1.13;;
11618;SDS011;5865;48.776;9.280;2022-09-17T12:13:29;2.90;;;1.30;;
11618;SDS011;5865;48.776;9.280;2022-09-17T12:16:00;2.93;;;1.30;;
11618;SDS011;5865;48.776;9.280;2022-09-17T12:18:43;1.53;;;0.80;;
11618;SDS011;5865;48.776;9.280;2022-09-17T12:21:17;1.40;;;0.90;;
11618;SDS011;5865;48.776;9.280;2022-09-17T12:23:51;2.30;;;1.30;;
11618;SDS011;5865;48.776;9.280;2022-09-17T12:26:28;2.53;;;1.20;;
11618;SDS011;5865;48.776;9.280;2022-09-17T12:29:10;3.03;;;1.00;;
11618;SDS011;5865;48.776;9.280;2022-09-17T12:31:52;1.30;;;1.00;;
11618;SDS011;5865;48.776;9.280;2022-09-17T12:34:32;1.90;;;0.80;;
11618;SDS011;5865;48.776;9.280;2022-09-17T12:37:09;2.40;;;1.13;;
11618;SDS011;5865;48.776;9.280;2022-09-17T12:42:44;2.03;;;1.33;;
11618;SDS011;5865;48.776;9.280;2022-09-17T12:48:30;3.10;;;1.30;;
11618;SDS011;5865;48.776;9.280;2022-09-17T12:51:12;2.13;;;1.20;;
11618;SDS011;5865;48.776;9.280;2022-09-17T12:53:47;3.80;;;1.20;;
11618;SDS011;5865;48.776;9.280;2022-09-17T12:56:32;1.90;;;1.07;;
11618;SDS011;5865;48.776;9.280;2022-09-17T12:59:14;3.17;;;0.90;;
11618;SDS011;5865;48.776;9.280;2022-09-17T13:01:44;2.77;;;0.93;;
11618;SDS011;5865;48.776;9.280;2022-09-17T13:04:29;3.03;;;0.90;;
11618;SDS011;5865;48.776;9.280;2022-09-17T13:07:14;2.07;;;0.80;;
11618;SDS011;5865;48.776;9.280;2022-09-17T13:12:54;1.67;;;0.93;;
11618;SDS011;5865;48.776;9.280;2022-09-17T13:15:34;1.87;;;0.90;;
11618;SDS011;5865;48.776;9.280;2022-09-17T13:18:10;1.50;;;0.87;;
11618;SDS011;5865;48.776;9.280;2022-09-17T13:20:43;2.23;;;0.90;;
11618;SDS011;5865;48.776;9.280;2022-09-17T13:23:27;1.53;;;1.00;;
11618;SDS011;5865;48.776;9.280;2022-09-17T13:25:59;1.83;;;1.10;;
11618;SDS011;5865;48.776;9.280;2022-09-17T13:28:36;2.20;;;0.93;;
11618;SDS011;5865;48.776;9.280;2022-09-17T13:31:07;1.33;;;0.70;;
11618;SDS011;5865;48.776;9.280;2022-09-17T13:33:55;4.47;;;1.03;;
11618;SDS011;5865;48.776;9.280;2022-09-17T13:36:39;1.37;;;0.63;;
11618;SDS011;5865;48.776;9.280;2022-09-17T13:39:08;1.60;;;1.00;;
11618;SDS011;5865;48.776;9.280;2022-09-17T13:41:37;1.40;;;0.60;;
11618;SDS011;5865;48.776;9.280;2022-09-17T13:44:07;0.87;;;0.70;;
11618;SDS011;5865;48.776;9.280;2022-09-17T13:46:36;1.43;;;0.70;;
11618;SDS011;5865;48.776;9.280;2022-09-17T13:49:04;2.43;;;0.90;;
11618;SDS011;5865;48.776;9.280;2022-09-17T13:51:43;0.87;;;0.70;;
11618;SDS011;5865;48.776;9.280;2022-09-17T13:54:15;1.50;;;0.90;;
11618;SDS011;5865;48.776;9.280;2022-09-17T13:56:46;0.77;;;0.60;;
11618;SDS011;5865;48.776;9.280;2022-09-17T13:59:18;1.20;;;0.83;;
11618;SDS011;5865;48.776;9.280;2022-09-17T14:02:00;1.40;;;0.77;;
11618;SDS011;5865;48.776;9.280;2022-09-17T14:08:09;1.10;;;0.70;;
11618;SDS011;5865;48.776;9.280;2022-09-17T14:10:51;1.05;;;0.70;;
11618;SDS011;5865;48.776;9.280;2022-09-17T14:19:16;1.77;;;0.90;;
11618;SDS011;5865;48.776;9.280;2022-09-17T14:22:12;1.57;;;0.90;;
11618;SDS011;5865;48.776;9.280;2022-09-17T14:24:45;2.30;;;0.80;;
11618;SDS011;5865;48.776;9.280;2022-09-17T14:27:14;1.58;;;0.77;;
11618;SDS011;5865;48.776;9.280;2022-09-17T14:30:09;2.47;;;0.93;;
11618;SDS011;5865;48.776;9.280;2022-09-17T14:32:43;1.77;;;0.98;;
11618;SDS011;5865;48.776;9.280;2022-09-17T14:35:15;1.70;;;0.80;;
11618;SDS011;5865;48.776;9.280;2022-09-17T14:37:47;2.25;;;0.80;;
11618;SDS011;5865;48.776;9.280;2022-09-17T14:40:20;2.65;;;0.85;;
11618;SDS011;5865;48.776;9.280;2022-09-17T14:42:52;1.70;;;1.10;;
11618;SDS011;5865;48.776;9.280;2022-09-17T14:45:22;2.67;;;1.00;;
11618;SDS011;5865;48.776;9.280;2022-09-17T14:50:51;3.90;;;1.00;;
11618;SDS011;5865;48.776;9.280;2022-09-17T14:53:21;1.90;;;0.90;;
11618;SDS011;5865;48.776;9.280;2022-09-17T14:55:48;2.17;;;0.80;;
11618;SDS011;5865;48.776;9.280;2022-09-17T14:58:25;1.30;;;1.00;;
11618;SDS011;5865;48.776;9.280;2022-09-17T15:00:56;2.77;;;1.10;;
11618;SDS011;5865;48.776;9.280;2022-09-17T15:03:25;2.93;;;1.47;;
11618;SDS011;5865;48.776;9.280;2022-09-17T15:05:52;2.03;;;1.20;;
11618;SDS011;5865;48.776;9.280;2022-09-17T15:08:20;1.90;;;0.80;;
11618;SDS011;5865;48.776;9.280;2022-09-17T15:10:48;1.93;;;1.10;;
11618;SDS011;5865;48.776;9.280;2022-09-17T15:13:18;1.93;;;1.00;;
11618;SDS011;5865;48.776;9.280;2022-09-17T15:15:52;2.90;;;1.30;;
11618;SDS011;5865;48.776;9.280;2022-09-17T15:18:24;1.90;;;1.10;;
11618;SDS011;5865;48.776;9.280;2022-09-17T15:21:00;2.60;;;1.30;;
11618;SDS011;5865;48.776;9.280;2022-09-17T15:23:31;1.60;;;1.20;;
11618;SDS011;5865;48.776;9.280;2022-09-17T15:25:59;3.67;;;1.50;;
11618;SDS011;5865;48.776;9.280;2022-09-17T15:28:28;4.97;;;1.40;;
11618;SDS011;5865;48.776;9.280;2022-09-17T15:30:59;3.30;;;1.23;;
11618;SDS011;5865;48.776;9.280;2022-09-17T15:33:26;1.90;;;0.93;;
11618;SDS011;5865;48.776;9.280;2022-09-17T15:36:00;3.10;;;1.10;;
11618;SDS011;5865;48.776;9.280;2022-09-17T15:38:35;2.77;;;1.30;;
11618;SDS011;5865;48.776;9.280;2022-09-17T15:41:11;4.30;;;1.23;;
11618;SDS011;5865;48.776;9.280;2022-09-17T15:44:04;2.10;;;1.13;;
11618;SDS011;5865;48.776;9.280;2022-09-17T15:46:32;3.10;;;1.37;;
11618;SDS011;5865;48.776;9.280;2022-09-17T15:49:00;3.53;;;1.10;;
11618;SDS011;5865;48.776;9.280;2022-09-17T15:51:29;4.33;;;1.40;;
11618;SDS011;5865;48.776;9.280;2022-09-17T15:53:59;2.50;;;1.47;;